createdAt,value
2023-02-14T00:02:06.999Z,88.69
2023-02-14T00:04:33.996Z,88.64
2023-02-14T00:07:01.252Z,88.59
2023-02-14T00:09:29.083Z,89.07
2023-02-14T00:11:55.681Z,89.17
2023-02-14T00:14:41.057Z,89.25
2023-02-14T00:17:07.557Z,89.10
2023-02-14T00:19:35.932Z,89.40
2023-02-14T00:22:03.547Z,89.35
2023-02-14T00:24:30.189Z,89.33
2023-02-14T00:26:57.095Z,89.58
2023-02-14T00:29:27.855Z,89.60
2023-02-14T00:31:54.843Z,89.71
2023-02-14T00:34:23.948Z,89.95
2023-02-14T00:36:50.704Z,90.16
2023-02-14T00:39:18.607Z,90.36
2023-02-14T00:41:45.343Z,90.39
2023-02-14T00:44:15.177Z,90.59
2023-02-14T00:46:41.931Z,89.30
2023-02-14T00:49:08.613Z,88.06
2023-02-14T00:51:38.061Z,87.86
2023-02-14T00:54:04.946Z,87.75
2023-02-14T00:56:32.239Z,87.82
2023-02-14T00:58:59.126Z,87.72
2023-02-14T01:01:27.946Z,87.98
2023-02-14T01:03:54.755Z,88.10
2023-02-14T01:06:23.762Z,88.26
2023-02-14T01:08:51.484Z,88.64
2023-02-14T01:11:20.575Z,88.68
2023-02-14T01:13:48.491Z,89.40
2023-02-14T01:16:18.566Z,89.32
2023-02-14T01:18:46.241Z,89.37
2023-02-14T01:21:24.843Z,89.58
2023-02-14T01:23:54.629Z,89.79
2023-02-14T01:26:22.547Z,89.70
2023-02-14T01:28:49.781Z,89.88
2023-02-14T01:31:18.252Z,89.47
2023-02-14T01:33:47.080Z,89.42
2023-02-14T01:36:22.437Z,89.43
2023-02-14T01:38:52.631Z,89.39
2023-02-14T01:41:19.716Z,88.96
2023-02-14T01:43:58.892Z,89.39
2023-02-14T01:46:28.566Z,89.85
2023-02-14T01:49:01.870Z,89.87
2023-02-14T01:51:29.339Z,90.09
2023-02-14T01:53:56.924Z,89.94
2023-02-14T01:56:35.922Z,90.17
2023-02-14T01:59:06.350Z,90.16
2023-02-14T02:01:33.025Z,89.84
2023-02-14T02:04:07.384Z,90.11
2023-02-14T02:07:05.784Z,90.12
2023-02-14T02:09:42.268Z,90.33
2023-02-14T02:12:09.004Z,90.26
2023-02-14T02:14:36.820Z,90.50
2023-02-14T02:17:21.394Z,90.18
2023-02-14T02:20:17.648Z,89.95
2023-02-14T02:23:25.808Z,90.42
2023-02-14T02:25:55.081Z,90.15
2023-02-14T02:29:07.095Z,89.62
2023-02-14T02:31:45.193Z,90.03
2023-02-14T02:34:36.612Z,89.92
2023-02-14T02:37:12.188Z,89.93
2023-02-14T02:40:20.263Z,90.17
2023-02-14T02:42:53.623Z,90.51
2023-02-14T02:46:17.670Z,90.46
2023-02-14T02:49:01.192Z,90.51
2023-02-14T02:51:55.612Z,90.31
2023-02-14T02:54:34.979Z,90.29
2023-02-14T02:57:05.524Z,90.07
2023-02-14T02:59:41.536Z,90.63
2023-02-14T03:02:13.765Z,90.91
2023-02-14T03:04:54.361Z,90.62
2023-02-14T03:07:34.793Z,90.27
2023-02-14T03:10:06.272Z,90.21
2023-02-14T03:12:37.442Z,90.31
2023-02-14T03:15:30.182Z,89.77
2023-02-14T03:18:22.264Z,90.02
2023-02-14T03:21:04.885Z,89.51
2023-02-14T03:23:38.400Z,89.39
2023-02-14T03:26:22.046Z,89.26
2023-02-14T03:29:08.716Z,89.30
2023-02-14T03:32:02.698Z,88.62
2023-02-14T03:34:48.906Z,89.34
2023-02-14T03:37:22.218Z,89.51
2023-02-14T03:40:11.431Z,89.64
2023-02-14T03:42:41.608Z,89.77
2023-02-14T03:45:13.176Z,89.83
2023-02-14T03:47:43.159Z,90.02
2023-02-14T03:50:16.779Z,89.77
2023-02-14T03:52:44.818Z,89.68
2023-02-14T03:55:15.379Z,89.86
2023-02-14T03:58:06.486Z,90.14
2023-02-14T04:00:37.568Z,90.33
2023-02-14T04:03:11.817Z,89.90
2023-02-14T04:05:43.558Z,89.74
2023-02-14T04:08:11.940Z,89.59
2023-02-14T04:10:40.100Z,89.92
2023-02-14T04:13:06.703Z,90.18
2023-02-14T04:15:33.355Z,90.32
2023-02-14T04:18:18.972Z,90.18
2023-02-14T04:20:45.498Z,90.47
2023-02-14T04:23:12.056Z,90.57
2023-02-14T04:25:40.339Z,90.35
2023-02-14T04:28:06.848Z,90.73
2023-02-14T04:30:33.400Z,90.96
2023-02-14T04:33:00.087Z,90.83
2023-02-14T04:35:26.695Z,91.04
2023-02-14T04:37:53.241Z,90.87
2023-02-14T04:40:19.996Z,91.15
2023-02-14T04:42:46.889Z,91.20
2023-02-14T04:45:13.878Z,91.18
2023-02-14T04:47:40.528Z,91.18
2023-02-14T04:50:07.666Z,91.33
2023-02-14T04:52:34.112Z,91.19
2023-02-14T04:55:00.742Z,91.20
2023-02-14T04:57:27.321Z,91.12
2023-02-14T04:59:53.853Z,91.26
2023-02-14T05:02:20.432Z,91.19
2023-02-14T05:04:49.629Z,91.28
2023-02-14T05:07:16.390Z,91.36
2023-02-14T05:09:42.938Z,91.30
2023-02-14T05:12:09.713Z,91.36
2023-02-14T05:14:36.240Z,91.57
2023-02-14T05:17:03.107Z,91.45
2023-02-14T05:19:29.734Z,91.48
2023-02-14T05:21:56.264Z,91.56
2023-02-14T05:24:22.896Z,91.64
2023-02-14T05:26:49.707Z,91.52
2023-02-14T05:29:16.269Z,91.80
2023-02-14T05:31:42.897Z,91.81
2023-02-14T05:34:09.779Z,91.62
2023-02-14T05:36:36.308Z,91.81
2023-02-14T05:39:03.000Z,91.72
2023-02-14T05:41:29.886Z,91.60
2023-02-14T05:43:56.431Z,91.70
2023-02-14T05:46:23.279Z,91.83
2023-02-14T05:48:49.990Z,91.78
2023-02-14T05:51:16.595Z,91.71
2023-02-14T05:53:43.299Z,91.62
2023-02-14T05:56:09.869Z,91.50
2023-02-14T05:58:36.502Z,91.44
2023-02-14T06:01:03.270Z,91.48
2023-02-14T06:03:30.051Z,91.38
2023-02-14T06:05:56.593Z,91.49
2023-02-14T06:08:23.418Z,91.42
2023-02-14T06:10:50.114Z,91.35
2023-02-14T06:13:16.794Z,91.23
2023-02-14T06:15:43.325Z,90.92
2023-02-14T06:18:10.098Z,91.10
2023-02-14T06:20:36.825Z,91.11
2023-02-14T06:23:03.754Z,91.36
2023-02-14T06:25:30.340Z,91.00
2023-02-14T06:27:58.549Z,91.28
2023-02-14T06:30:25.679Z,91.14
2023-02-14T06:32:52.296Z,90.93
2023-02-14T06:35:19.012Z,91.00
2023-02-14T06:37:45.718Z,90.92
2023-02-14T06:40:13.010Z,91.19
2023-02-14T06:42:40.044Z,91.30
2023-02-14T06:45:07.403Z,90.96
2023-02-14T06:47:35.202Z,91.14
2023-02-14T06:50:04.261Z,90.91
2023-02-14T06:52:32.240Z,91.26
2023-02-14T06:54:58.766Z,91.04
2023-02-14T06:57:25.345Z,91.16
2023-02-14T06:59:51.954Z,90.98
2023-02-14T07:02:18.773Z,91.26
2023-02-14T07:04:45.660Z,90.98
2023-02-14T07:07:12.241Z,91.20
2023-02-14T07:09:38.924Z,91.09
2023-02-14T07:12:05.705Z,91.14
2023-02-14T07:14:32.214Z,91.47
2023-02-14T07:16:58.781Z,91.39
2023-02-14T07:19:25.407Z,91.07
2023-02-14T07:21:52.001Z,91.20
2023-02-14T07:24:18.521Z,91.51
2023-02-14T07:26:45.092Z,91.54
2023-02-14T07:29:11.768Z,91.41
2023-02-14T07:31:38.500Z,91.55
2023-02-14T07:34:05.098Z,91.52
2023-02-14T07:36:32.915Z,91.51
2023-02-14T07:38:59.662Z,91.40
2023-02-14T07:41:26.269Z,91.31
2023-02-14T07:43:52.844Z,91.28
2023-02-14T07:46:22.546Z,91.28
2023-02-14T07:48:52.516Z,91.44
2023-02-14T07:51:19.276Z,91.21
2023-02-14T07:53:47.962Z,90.86
2023-02-14T07:56:14.737Z,91.08
2023-02-14T07:58:43.823Z,90.88
2023-02-14T08:01:12.395Z,90.88
2023-02-14T08:03:38.933Z,91.06
2023-02-14T08:06:07.787Z,91.08
2023-02-14T08:08:34.480Z,90.98
2023-02-14T08:11:01.661Z,90.71
2023-02-14T08:13:28.531Z,90.44
2023-02-14T08:16:09.849Z,90.34
2023-02-14T08:18:41.290Z,90.49
2023-02-14T08:21:11.313Z,90.61
2023-02-14T08:23:38.239Z,90.67
2023-02-14T08:26:04.936Z,90.79
2023-02-14T08:28:33.007Z,90.86
2023-02-14T08:31:00.909Z,90.56
2023-02-14T08:33:28.258Z,90.90
2023-02-14T08:35:55.224Z,90.79
2023-02-14T08:38:22.465Z,90.71
2023-02-14T08:40:49.158Z,90.53
2023-02-14T08:43:15.900Z,90.49
2023-02-14T08:45:42.937Z,90.48
2023-02-14T08:48:10.848Z,90.31
2023-02-14T08:50:38.227Z,90.78
2023-02-14T08:53:09.681Z,90.97
2023-02-14T08:55:36.656Z,90.64
2023-02-14T08:58:04.736Z,90.62
2023-02-14T09:00:32.511Z,90.42
2023-02-14T09:02:59.398Z,90.38
2023-02-14T09:05:26.507Z,90.30
2023-02-14T09:07:55.979Z,90.33
2023-02-14T09:10:23.398Z,90.14
2023-02-14T09:12:50.436Z,90.17
2023-02-14T09:15:16.993Z,89.96
2023-02-14T09:17:43.726Z,89.82
2023-02-14T09:20:12.161Z,89.80
2023-02-14T09:22:38.798Z,89.06
2023-02-14T09:25:06.259Z,89.34
2023-02-14T09:27:32.963Z,89.37
2023-02-14T09:29:59.788Z,89.57
2023-02-14T09:32:27.160Z,89.50
2023-02-14T09:34:53.831Z,88.87
2023-02-14T09:37:20.524Z,88.89
2023-02-14T09:39:47.072Z,88.76
2023-02-14T09:43:02.147Z,87.95
2023-02-14T09:45:32.299Z,87.52
2023-02-14T09:48:17.204Z,87.31
2023-02-14T09:50:47.365Z,86.85
2023-02-14T09:53:26.008Z,87.71
2023-02-14T09:56:31.036Z,87.66
2023-02-14T09:59:04.916Z,86.88
2023-02-14T10:01:38.369Z,86.58
2023-02-14T10:04:23.201Z,87.24
2023-02-14T10:07:15.405Z,87.26
2023-02-14T10:10:30.831Z,87.14
2023-02-14T10:13:40.306Z,87.41
2023-02-14T10:16:14.163Z,87.14
2023-02-14T10:18:49.916Z,86.93
2023-02-14T10:21:25.450Z,86.84
2023-02-14T10:24:01.994Z,87.49
2023-02-14T10:26:40.122Z,87.14
2023-02-14T10:29:12.871Z,87.08
2023-02-14T10:31:55.562Z,87.02
2023-02-14T10:34:38.991Z,87.07
2023-02-14T10:37:24.608Z,87.30
2023-02-14T10:40:05.876Z,87.08
2023-02-14T10:42:47.437Z,86.04
2023-02-14T10:45:45.027Z,86.20
2023-02-14T10:48:17.762Z,86.23
2023-02-14T10:51:03.211Z,86.54
2023-02-14T10:54:19.316Z,86.41
2023-02-14T10:56:50.005Z,86.25
2023-02-14T10:59:25.870Z,86.79
2023-02-14T11:01:54.695Z,86.89
2023-02-14T11:04:23.912Z,86.53
2023-02-14T11:06:50.925Z,86.54
2023-02-14T11:09:18.259Z,86.64
2023-02-14T11:11:54.378Z,86.57
2023-02-14T11:14:24.010Z,86.25
2023-02-14T11:16:51.994Z,86.34
2023-02-14T11:19:23.880Z,86.34
2023-02-14T11:21:52.184Z,86.70
2023-02-14T11:24:39.769Z,85.84
2023-02-14T11:27:12.380Z,86.00
2023-02-14T11:29:38.862Z,85.87
2023-02-14T11:32:21.596Z,85.55
2023-02-14T11:34:57.892Z,85.93
2023-02-14T11:37:28.613Z,85.66
2023-02-14T11:39:57.981Z,85.72
2023-02-14T11:42:54.605Z,85.36
2023-02-14T11:45:36.336Z,85.46
2023-02-14T11:48:37.635Z,85.77
2023-02-14T11:51:14.987Z,85.69
2023-02-14T11:53:51.942Z,85.62
2023-02-14T11:56:20.407Z,85.70
2023-02-14T11:58:52.779Z,85.41
2023-02-14T12:01:26.849Z,85.58
2023-02-14T12:03:55.488Z,85.89
2023-02-14T12:06:30.243Z,85.01
2023-02-14T12:09:21.688Z,85.19
2023-02-14T12:12:02.590Z,85.55
2023-02-14T12:14:34.503Z,85.64
2023-02-14T12:17:27.451Z,85.57
2023-02-14T12:20:03.512Z,85.10
2023-02-14T12:22:35.930Z,85.03
2023-02-14T12:25:21.371Z,85.52
2023-02-14T12:27:53.733Z,85.48
2023-02-14T12:30:24.952Z,85.45
2023-02-14T12:32:54.328Z,85.58
2023-02-14T12:35:46.247Z,85.30
2023-02-14T12:38:36.529Z,84.91
2023-02-14T12:41:12.198Z,85.48
2023-02-14T12:43:52.440Z,84.31
2023-02-14T12:46:30.307Z,84.34
2023-02-14T12:49:03.204Z,85.17
2023-02-14T12:51:50.865Z,84.73
2023-02-14T12:55:16.014Z,84.43
2023-02-14T12:58:02.323Z,84.17
2023-02-14T13:01:01.403Z,84.29
2023-02-14T13:03:31.243Z,84.49
2023-02-14T13:06:30.630Z,84.34
2023-02-14T13:09:06.109Z,84.70
2023-02-14T13:11:46.708Z,84.76
2023-02-14T13:14:45.681Z,83.94
2023-02-14T13:17:41.073Z,83.95
2023-02-14T13:20:45.388Z,84.36
2023-02-14T13:23:29.930Z,84.39
2023-02-14T13:26:01.381Z,84.68
2023-02-14T13:28:30.786Z,84.38
2023-02-14T13:30:59.900Z,84.30
2023-02-14T13:33:40.183Z,84.10
2023-02-14T13:36:12.599Z,83.94
2023-02-14T13:38:52.217Z,83.57
2023-02-14T13:41:21.428Z,84.07
2023-02-14T13:44:08.250Z,84.08
2023-02-14T13:46:35.146Z,84.38
2023-02-14T13:49:22.023Z,84.33
2023-02-14T13:51:51.040Z,84.32
2023-02-14T13:54:44.944Z,84.27
2023-02-14T13:57:29.409Z,83.82
2023-02-14T14:00:17.956Z,83.49
2023-02-14T14:02:48.876Z,84.01
2023-02-14T14:05:30.585Z,83.72
2023-02-14T14:08:27.561Z,83.48
2023-02-14T14:10:57.603Z,83.89
2023-02-14T14:13:42.655Z,83.60
2023-02-14T14:16:27.458Z,83.46
2023-02-14T14:18:58.588Z,84.08
2023-02-14T14:21:29.747Z,84.33
2023-02-14T14:24:20.807Z,84.59
2023-02-14T14:26:56.424Z,84.26
2023-02-14T14:29:31.015Z,84.74
2023-02-14T14:31:58.519Z,84.76
2023-02-14T14:34:28.236Z,85.37
2023-02-14T14:37:05.826Z,84.81
2023-02-14T14:39:34.637Z,84.99
2023-02-14T14:42:09.810Z,84.96
2023-02-14T14:44:44.982Z,84.81
2023-02-14T14:47:24.497Z,84.97
2023-02-14T14:50:00.312Z,85.01
2023-02-14T14:52:34.908Z,84.92
2023-02-14T14:55:02.961Z,85.47
2023-02-14T14:57:30.110Z,85.69
2023-02-14T15:00:18.931Z,85.45
2023-02-14T15:03:07.085Z,85.57
2023-02-14T15:05:40.472Z,85.89
2023-02-14T15:08:17.566Z,85.59
2023-02-14T15:10:49.591Z,85.64
2023-02-14T15:13:35.046Z,85.80
2023-02-14T15:16:03.819Z,85.81
2023-02-14T15:18:30.679Z,85.95
2023-02-14T15:20:57.424Z,86.04
2023-02-14T15:23:25.118Z,86.28
2023-02-14T15:25:52.344Z,86.20
2023-02-14T15:28:31.731Z,86.15
2023-02-14T15:31:03.808Z,86.53
2023-02-14T15:33:32.214Z,86.73
2023-02-14T15:36:04.223Z,86.96
2023-02-14T15:38:32.112Z,87.00
2023-02-14T15:41:00.248Z,87.14
2023-02-14T15:43:32.601Z,87.09
2023-02-14T15:46:15.116Z,87.30
2023-02-14T15:48:42.337Z,87.34
2023-02-14T15:51:16.801Z,87.71
2023-02-14T15:53:53.649Z,87.61
2023-02-14T15:56:25.265Z,87.53
2023-02-14T15:59:00.317Z,87.69
2023-02-14T16:01:27.665Z,87.75
2023-02-14T16:03:59.619Z,88.20
2023-02-14T16:06:37.383Z,87.94
2023-02-14T16:09:26.061Z,88.13
2023-02-14T16:11:53.648Z,88.20
2023-02-14T16:14:29.390Z,88.32
2023-02-14T16:17:06.084Z,88.18
2023-02-14T16:19:35.445Z,88.30
2023-02-14T16:22:02.157Z,88.57
2023-02-14T16:24:28.801Z,88.31
2023-02-14T16:26:56.393Z,88.24
2023-02-14T16:29:22.912Z,88.54
2023-02-14T16:32:14.557Z,88.45
2023-02-14T16:34:41.737Z,88.36
2023-02-14T16:37:12.110Z,88.16
2023-02-14T16:39:39.318Z,88.36
2023-02-14T16:42:06.257Z,88.49
2023-02-14T16:44:33.112Z,88.55
2023-02-14T16:47:01.949Z,88.50
2023-02-14T16:49:28.500Z,88.64
2023-02-14T16:51:55.371Z,88.69
2023-02-14T16:54:23.734Z,88.35
2023-02-14T16:56:53.400Z,88.79
2023-02-14T16:59:19.951Z,88.95
2023-02-14T17:01:46.593Z,88.78
2023-02-14T17:04:13.411Z,89.27
2023-02-14T17:06:43.511Z,89.16
2023-02-14T17:09:13.651Z,89.18
2023-02-14T17:11:45.206Z,89.09
2023-02-14T17:14:17.838Z,89.10
2023-02-14T17:16:44.410Z,89.53
2023-02-14T17:19:11.788Z,89.46
2023-02-14T17:21:38.689Z,89.25
2023-02-14T17:24:05.481Z,89.40
2023-02-14T17:26:33.757Z,89.42
2023-02-14T17:29:00.413Z,89.43
2023-02-14T17:31:28.574Z,89.41
2023-02-14T17:33:55.490Z,89.37
2023-02-14T17:36:24.148Z,89.56
2023-02-14T17:38:53.489Z,89.59
2023-02-14T17:41:25.698Z,89.42
2023-02-14T17:44:00.132Z,89.57
2023-02-14T17:46:31.027Z,89.54
2023-02-14T17:48:57.900Z,89.65
2023-02-14T17:51:24.958Z,89.52
2023-02-14T17:53:51.848Z,89.72
2023-02-14T17:56:24.532Z,89.77
2023-02-14T17:58:57.751Z,90.08
2023-02-14T18:01:26.682Z,89.98
2023-02-14T18:03:55.971Z,90.00
2023-02-14T18:06:23.091Z,89.98
2023-02-14T18:08:52.997Z,89.96
2023-02-14T18:11:20.887Z,89.96
2023-02-14T18:13:47.678Z,89.98
2023-02-14T18:16:16.462Z,90.16
2023-02-14T18:18:43.364Z,90.13
2023-02-14T18:21:12.326Z,90.09
2023-02-14T18:23:39.311Z,90.26
2023-02-14T18:26:09.932Z,90.30
2023-02-14T18:28:36.638Z,90.52
2023-02-14T18:31:12.045Z,89.97
2023-02-14T18:33:39.756Z,90.37
2023-02-14T18:36:10.079Z,90.35
2023-02-14T18:38:36.841Z,90.51
2023-02-14T18:41:04.511Z,90.41
2023-02-14T18:43:31.287Z,90.48
2023-02-14T18:46:10.242Z,90.40
2023-02-14T18:48:36.903Z,90.45
2023-02-14T18:51:23.528Z,90.53
2023-02-14T18:53:52.239Z,90.43
2023-02-14T18:56:22.176Z,90.76
2023-02-14T18:58:52.720Z,90.51
2023-02-14T19:01:23.291Z,90.70
2023-02-14T19:03:51.262Z,90.63
2023-02-14T19:06:18.239Z,90.90
2023-02-14T19:08:45.303Z,91.01
2023-02-14T19:11:18.414Z,91.23
2023-02-14T19:13:51.218Z,91.36
2023-02-14T19:16:24.375Z,91.19
2023-02-14T19:18:53.356Z,91.26
2023-02-14T19:21:25.687Z,91.16
2023-02-14T19:23:54.361Z,91.36
2023-02-14T19:26:23.704Z,91.28
2023-02-14T19:28:54.877Z,91.08
2023-02-14T19:31:21.861Z,91.43
2023-02-14T19:33:48.948Z,91.54
2023-02-14T19:36:18.521Z,91.23
2023-02-14T19:38:48.207Z,91.12
2023-02-14T19:41:18.793Z,91.14
2023-02-14T19:43:46.452Z,91.22
2023-02-14T19:46:14.547Z,90.88
2023-02-14T19:48:41.513Z,90.80
2023-02-14T19:51:08.387Z,90.93
2023-02-14T19:53:34.969Z,90.68
2023-02-14T19:56:01.845Z,90.66
2023-02-14T19:58:28.646Z,90.81
2023-02-14T20:01:00.014Z,90.98
2023-02-14T20:03:30.607Z,91.00
2023-02-14T20:05:57.224Z,90.82
2023-02-14T20:08:23.963Z,90.92
2023-02-14T20:10:50.528Z,91.20
2023-02-14T20:13:17.056Z,90.68
2023-02-14T20:15:45.504Z,90.78
2023-02-14T20:18:12.013Z,91.19
2023-02-14T20:20:57.194Z,90.83
2023-02-14T20:23:23.802Z,90.84
2023-02-14T20:25:50.342Z,91.30
2023-02-14T20:28:16.888Z,91.06
2023-02-14T20:30:43.525Z,91.00
2023-02-14T20:33:10.138Z,90.98
2023-02-14T20:35:40.687Z,91.26
2023-02-14T20:38:07.870Z,90.91
2023-02-14T20:40:39.190Z,90.95
2023-02-14T20:43:06.272Z,90.92
2023-02-14T20:45:32.987Z,91.48
2023-02-14T20:48:03.984Z,91.77
2023-02-14T20:50:31.246Z,91.39
2023-02-14T20:52:58.185Z,91.58
2023-02-14T20:55:27.036Z,91.16
2023-02-14T20:57:53.924Z,91.35
2023-02-14T21:00:20.691Z,91.36
2023-02-14T21:02:47.230Z,91.09
2023-02-14T21:05:18.500Z,91.21
2023-02-14T21:07:45.210Z,91.42
2023-02-14T21:10:11.725Z,91.15
2023-02-14T21:12:38.672Z,90.88
2023-02-14T21:15:06.979Z,91.40
2023-02-14T21:17:33.984Z,91.39
2023-02-14T21:20:00.569Z,91.49
2023-02-14T21:22:27.214Z,91.74
2023-02-14T21:24:53.759Z,91.50
2023-02-14T21:27:20.285Z,91.71
2023-02-14T21:29:46.857Z,91.95
2023-02-14T21:32:13.503Z,91.68
2023-02-14T21:34:40.233Z,91.71
2023-02-14T21:37:06.740Z,91.41
2023-02-14T21:39:35.711Z,91.39
2023-02-14T21:42:02.404Z,91.59
2023-02-14T21:44:47.327Z,91.39
2023-02-14T21:47:13.924Z,91.59
2023-02-14T21:49:59.164Z,91.39
2023-02-14T21:52:25.713Z,91.51
2023-02-14T21:54:52.458Z,91.31
2023-02-14T21:57:19.013Z,91.62
2023-02-14T21:59:45.550Z,91.27
2023-02-14T22:02:12.444Z,91.37
2023-02-14T22:04:39.303Z,91.83
2023-02-14T22:07:07.871Z,91.82
2023-02-14T22:09:34.543Z,91.47
2023-02-14T22:12:01.104Z,91.71
2023-02-14T22:14:29.282Z,91.53
2023-02-14T22:16:55.991Z,91.81
2023-02-14T22:19:24.932Z,91.81
2023-02-14T22:21:51.422Z,91.90
2023-02-14T22:24:18.015Z,91.49
2023-02-14T22:26:44.598Z,91.73
2023-02-14T22:29:12.489Z,91.89
2023-02-14T22:31:43.629Z,91.70
2023-02-14T22:34:15.987Z,91.82
2023-02-14T22:36:42.568Z,91.38
2023-02-14T22:39:12.636Z,91.70
2023-02-14T22:41:39.575Z,91.66
2023-02-14T22:44:06.318Z,91.80
2023-02-14T22:46:33.352Z,92.10
2023-02-14T22:48:59.916Z,92.27
2023-02-14T22:51:29.994Z,92.50
2023-02-14T22:53:59.397Z,91.97
2023-02-14T22:56:27.496Z,92.55
2023-02-14T22:58:55.875Z,93.06
2023-02-14T23:01:23.635Z,93.35
2023-02-14T23:03:57.131Z,94.07
2023-02-14T23:06:25.910Z,93.63
2023-02-14T23:08:53.511Z,94.00
2023-02-14T23:11:23.072Z,93.31
2023-02-14T23:14:08.235Z,93.25
2023-02-14T23:17:04.025Z,93.36
2023-02-14T23:19:51.376Z,93.09
2023-02-14T23:22:27.242Z,92.99
2023-02-14T23:24:57.252Z,92.80
2023-02-14T23:27:27.306Z,92.58
2023-02-14T23:29:53.816Z,92.62
2023-02-14T23:32:20.445Z,92.56
2023-02-14T23:34:47.218Z,92.59
2023-02-14T23:37:14.291Z,92.68
2023-02-14T23:39:40.999Z,92.81
2023-02-14T23:42:13.698Z,92.74
2023-02-14T23:44:40.667Z,92.67
2023-02-14T23:47:08.632Z,93.43
2023-02-14T23:49:37.321Z,93.13
2023-02-14T23:52:06.462Z,93.95
2023-02-14T23:54:33.534Z,94.96
2023-02-14T23:56:59.984Z,96.31
2023-02-14T23:59:26.629Z,95.95
